juil
31

MOTOCROSS FIM – GP DE LOMMEL : INFOS ET RÉSULTATS

MX1 – Free Practice – Classification
Pos Nr Rider Nat. Fed. Bike Bestlaptime in lap Diff. First Diff. Prev. Tot. Laps Speed

1 9 de Dycker, Ken BEL FMB Honda 2:05.798 5 0:00.000 0:00.000 7 47.934
2 14 de Reuver, Marc NED KNMV Yamaha 2:07.028 9 0:01.230 0:01.230 9 47.47
3 25 Desalle, Clement BEL FMB Suzuki 2:07.184 8 0:01.386 0:00.156 10 47.412
4 222 Cairoli, Antonio ITA FMI KTM 2:07.249 6 0:01.451 0:00.065 9 47.387
5 777 Bobryshev, Evgeny RUS MFR Honda 2:07.472 6 0:01.674 0:00.223 10 47.305
6 24 Simpson, Shaun GBR ACU Honda 2:08.212 3 0:02.414 0:00.740 6 47.031
7 999 Goncalves, Rui POR FMP Honda 2:08.444 8 0:02.646 0:00.232 9 46.947
8 141 Church, Tom GBR ACU KTM 2:08.707 4 0:02.909 0:00.263 4 46.851
9 19 Philippaerts, David ITA FMI Yamaha 2:09.285 10 0:03.487 0:00.578 10 46.641
10 121 Boog, Xavier FRA FFM Kawasaki 2:09.647 6 0:03.849 0:00.362 9 46.511
11 11 Ramon, Steve BEL FMB Suzuki 2:09.893 10 0:04.095 0:00.246 10 46.423
12 183 Frossard, Steven FRA FFM Yamaha 2:10.062 7 0:04.264 0:00.169 11 46.363
13 7 Barragan, Jonathan ESP RFME Kawasaki 2:10.102 8 0:04.304 0:00.040 10 46.348
14 75 Wouts, Kevin BEL DMSB Kawasaki 2:10.246 6 0:04.448 0:00.144 7 46.297
15 6 Leok, Tanel EST EMF TM 2:10.553 8 0:04.755 0:00.307 9 46.188
16 20 Aranda, Gregory FRA FFM Kawasaki 2:11.609 7 0:05.811 0:01.056 9 45.818
17 61 Brakke, Herjan NED KNMV Yamaha 2:11.832 8 0:06.034 0:00.223 11 45.74
18 260 Nyegaard, Remi NOR NMF Yamaha 2:12.708 8 0:06.910 0:00.876 10 45.438
19 55 Potisek, Milko FRA FFM Kawasaki 2:12.993 7 0:07.195 0:00.285 10 45.341
20 442 Van Beveren, Adrien FRA FFM Yamaha 2:13.245 7 0:07.447 0:00.252 12 45.255
21 71 Gijsel, Roy NED KNMV Suzuki 2:13.283 9 0:07.485 0:00.038 9 45.242
22 68 Reijnders, Stuwey NED KNMV Suzuki 2:13.544 4 0:07.746 0:00.261 8 45.154
23 387 Martens, Yentel BEL MUL KTM 2:13.685 5 0:07.887 0:00.141 11 45.106
24 10 Boissiere, Anthony FRA FFM Yamaha 2:13.716 8 0:07.918 0:00.031 10 45.096
25 67 Tiainen, Santtu FIN SML Kawasaki 2:13.861 7 0:08.063 0:00.145 13 45.047
26 60 Van Daele, Marvin BEL FMB Honda 2:13.985 7 0:08.187 0:00.124 8 45.005
27 215 Lynggaard, Kasper DEN DMU Kawasaki 2:14.375 10 0:08.577 0:00.390 10 44.874
28 41 Smith, Alfie GBR ACU Aprilia 2:14.428 4 0:08.630 0:00.053 10 44.857
29 2 Nagl, Maximilian GER DMSB KTM 2:14.585 4 0:08.787 0:00.157 8 44.804
30 22 Strijbos, Kevin BEL FMB Suzuki 2:14.873 7 0:09.075 0:00.288 10 44.709
31 52 Walkner, Matthias AUT OeAMTC KTM 2:15.253 7 0:09.455 0:00.380 11 44.583
32 39 Guarneri, Davide ITA FMI Kawasaki 2:15.406 8 0:09.608 0:00.153 9 44.533
33 65 Van Rooi, Ronnie NED KNMV Kawasaki 2:15.931 10 0:10.133 0:00.525 12 44.361
34 30 Lieber, Cedric BEL MUL KTM 2:16.398 9 0:10.600 0:00.467 10 44.209
35 127 Eriksson, Toni FIN SML Kawasaki 2:16.462 6 0:10.664 0:00.064 12 44.188
36 115 Campano Jimenez, Carlos ESP RFME Yamaha 2:17.634 8 0:11.836 0:01.172 9 43.812
37 74 Steinbergs, Ivo LAT LAMSF Kawasaki 2:17.856 7 0:12.058 0:00.222 9 43.741
38 45 Leonce, Loic FRA FFM Aprilia 2:19.885 8 0:14.087 0:02.029 11 43.107
39 49 Schmidinger, Günter AUT OeAMTC Honda 2:20.106 3 0:14.308 0:00.221 8 43.039

MX1 – Pre-Qualifying Practice – Classification
Pos Nr Rider Nat. Fed. Bike Bestlaptime in lap Diff. First Diff. Prev. Tot. Laps Speed

1 6 Leok, Tanel EST EMF TM 2:07.517 8 0:00.000 0:00.000 8 47.288
2 222 Cairoli, Antonio ITA FMI KTM 2:07.957 6 0:00.440 0:00.440 10 47.125
3 9 de Dycker, Ken BEL FMB Honda 2:08.445 5 0:00.928 0:00.488 8 46.946
4 777 Bobryshev, Evgeny RUS MFR Honda 2:08.853 4 0:01.336 0:00.408 8 46.798
5 2 Nagl, Maximilian GER DMSB KTM 2:09.202 2 0:01.685 0:00.349 9 46.671
6 25 Desalle, Clement BEL FMB Suzuki 2:09.286 3 0:01.769 0:00.084 8 46.641
7 183 Frossard, Steven FRA FFM Yamaha 2:09.330 6 0:01.813 0:00.044 7 46.625
8 24 Simpson, Shaun GBR ACU Honda 2:10.542 5 0:03.025 0:01.212 9 46.192
9 999 Goncalves, Rui POR FMP Honda 2:10.662 9 0:03.145 0:00.120 9 46.15
10 19 Philippaerts, David ITA FMI Yamaha 2:10.886 10 0:03.369 0:00.224 10 46.071
11 14 de Reuver, Marc NED KNMV Yamaha 2:11.867 5 0:04.350 0:00.981 8 45.728
12 11 Ramon, Steve BEL FMB Suzuki 2:12.458 3 0:04.941 0:00.591 8 45.524
13 121 Boog, Xavier FRA FFM Kawasaki 2:14.070 9 0:06.553 0:01.612 9 44.977
14 7 Barragan, Jonathan ESP RFME Kawasaki 2:14.409 3 0:06.892 0:00.339 8 44.863
15 68 Reijnders, Stuwey NED KNMV Suzuki 2:14.647 2 0:07.130 0:00.238 5 44.784
16 22 Strijbos, Kevin BEL FMB Suzuki 2:14.844 4 0:07.327 0:00.197 10 44.718
17 60 Van Daele, Marvin BEL FMB Honda 2:14.951 5 0:07.434 0:00.107 6 44.683
18 141 Church, Tom GBR ACU KTM 2:15.844 5 0:08.327 0:00.893 5 44.389
19 39 Guarneri, Davide ITA FMI Kawasaki 2:16.117 7 0:08.600 0:00.273 8 44.3
20 387 Martens, Yentel BEL MUL KTM 2:16.468 2 0:08.951 0:00.351 8 44.186
21 20 Aranda, Gregory FRA FFM Kawasaki 2:16.475 4 0:08.958 0:00.007 8 44.184
22 75 Wouts, Kevin BEL DMSB Kawasaki 2:16.740 5 0:09.223 0:00.265 6 44.098
23 61 Brakke, Herjan NED KNMV Yamaha 2:16.883 2 0:09.366 0:00.143 9 44.052
24 55 Potisek, Milko FRA FFM Kawasaki 2:17.530 7 0:10.013 0:00.647 9 43.845
25 10 Boissiere, Anthony FRA FFM Yamaha 2:18.354 5 0:10.837 0:00.824 8 43.584

26 215 Lynggaard, Kasper DEN DMU Kawasaki 2:18.965 4 0:11.448 0:00.611 7 43.392
27 67 Tiainen, Santtu FIN SML Kawasaki 2:18.986 7 0:11.469 0:00.021 10 43.386
28 65 Van Rooi, Ronnie NED KNMV Kawasaki 2:19.060 4 0:11.543 0:00.074 10 43.363
29 260 Nyegaard, Remi NOR NMF Yamaha 2:19.922 7 0:12.405 0:00.862 9 43.095
30 127 Eriksson, Toni FIN SML Kawasaki 2:20.147 4 0:12.630 0:00.225 10 43.026
31 52 Walkner, Matthias AUT OeAMTC KTM 2:20.484 4 0:12.967 0:00.337 8 42.923
32 115 Campano Jimenez, Carlos ESP RFME Yamaha 2:20.937 5 0:13.420 0:00.453 8 42.785
33 71 Gijsel, Roy NED KNMV Suzuki 2:20.946 3 0:13.429 0:00.009 8 42.782
34 45 Leonce, Loic FRA FFM Aprilia 2:21.028 6 0:13.511 0:00.082 7 42.757
35 442 Van Beveren, Adrien FRA FFM Yamaha 2:21.400 3 0:13.883 0:00.372 10 42.645
36 41 Smith, Alfie GBR ACU Aprilia 2:23.268 3 0:15.751 0:01.868 9 42.089
37 30 Lieber, Cedric BEL MUL KTM 2:24.731 4 0:17.214 0:01.463 7 41.663
38 49 Schmidinger, Günter AUT OeAMTC Honda 2:25.921 7 0:18.404 0:01.190 8 41.324
39 74 Steinbergs, Ivo LAT LAMSF Kawasaki 2:26.138 7 0:18.621 0:00.217 7 41.262

MANCHE QUALIFICATIVE MX1

Holeshot de Clément Desalle..! Bobryshev s’empare de la tête de course quelques tours plus tard.. Chute de Guarneri.. Grosse chute de Steve Ramon qui va rester longtemps au sol et sera évacué.. Drapeau rouge, la manche est stoppée afin d’évacuer Steve Ramon en toute sécurité.. Steve Ramon se serait fait percuter par un autre Pilote après avoir chuté avec Simpson.. Info à mettre au conditionnel : il souffrirait, entre autres, d’une absence de sensations dans les membres inférieurs, plus d’infos’ dès que dispos’..

Un second départ est donné..

Holeshot de Steven Frossard.. Chute de Bobryshev à 13 min de la fin de manche.. Desalle et Philippaerts vont tous les deux aller à la faute à 2 endroits différents.. Démonstration de Steven Frossard qui survole la manche en tête.. Nouvelle chute de Clément Desalle à 7 min de la fin.. Gros retour de Cairoli dans les 2 derniers tours qui va passer le français..

MX1 – Qualifying Race – Classification
Pos Nr Rider Nat. Fed. Bike Time laps Diff. First Diff. Prev. Bestlaptime in lap Speed

1 222 Cairoli, Antonio ITA FMI KTM 25:55.701 11 0:00.000 0:00.000 2:15.996 3 44.34
2 183 Frossard, Steven FRA FFM Yamaha 25:57.038 11 0:01.337 0:01.337 2:14.535 3 44.821
3 777 Bobryshev, Evgeny RUS MFR Honda 26:26.458 11 0:30.757 0:29.420 2:15.011 1 44.663
4 25 Desalle, Clement BEL FMB Suzuki 26:29.818 11 0:34.117 0:03.360 2:15.312 3 44.564
5 9 de Dycker, Ken BEL FMB Honda 26:34.597 11 0:38.896 0:04.779 2:17.233 5 43.94
6 2 Nagl, Maximilian GER DMSB KTM 26:35.488 11 0:39.787 0:00.891 2:17.879 1 43.734
7 14 de Reuver, Marc NED KNMV Yamaha 26:36.769 11 0:41.068 0:01.281 2:17.718 3 43.785
8 6 Leok, Tanel EST EMF TM 26:41.676 11 0:45.975 0:04.907 2:18.531 9 43.528
9 999 Goncalves, Rui POR FMP Honda 26:45.749 11 0:50.048 0:04.073 2:17.905 5 43.726
10 22 Strijbos, Kevin BEL FMB Suzuki 26:53.748 11 0:58.047 0:07.999 2:19.594 1 43.197
11 121 Boog, Xavier FRA FFM Kawasaki 27:08.722 11 1:13.021 0:14.974 2:21.077 6 42.743
12 24 Simpson, Shaun GBR ACU Honda 27:09.424 11 1:13.723 0:00.702 2:18.077 3 43.671
13 7 Barragan, Jonathan ESP RFME Kawasaki 27:35.584 11 1:39.883 0:26.160 2:22.071 2 42.444
14 60 Van Daele, Marvin BEL FMB Honda 27:41.496 11 1:45.795 0:05.912 2:24.829 4 41.635
15 55 Potisek, Milko FRA FFM Kawasaki 27:46.485 11 1:50.784 0:04.989 2:24.932 3 41.606
16 10 Boissiere, Anthony FRA FFM Yamaha 28:05.883 11 2:10.182 0:19.398 2:24.600 4 41.701
17 65 Van Rooi, Ronnie NED KNMV Kawasaki 28:16.851 11 2:21.150 0:10.968 2:23.023 3 42.161
18 39 Guarneri, Davide ITA FMI Kawasaki 28:21.629 11 2:25.928 0:04.778 2:27.270 5 40.945
19 52 Walkner, Matthias AUT OeAMTC KTM 28:21.976 11 2:26.275 0:00.347 2:27.529 3 40.873
20 67 Tiainen, Santtu FIN SML Kawasaki 28:24.434 11 2:28.733 0:02.458 2:26.083 3 41.278
21 442 Van Beveren, Adrien FRA FFM Yamaha 28:28.131 11 2:32.430 0:03.697 2:28.076 2 40.722
22 71 Gijsel, Roy NED KNMV Suzuki 28:32.007 11 2:36.306 0:03.876 2:26.987 2 41.024
23 20 Aranda, Gregory FRA FFM Kawasaki 28:38.863 11 2:43.162 0:06.856 2:27.077 6 40.999
24 260 Nyegaard, Remi NOR NMF Yamaha 25:57.791 10 1 lap 1 lap 2:25.982 3 41.306
25 19 Philippaerts, David ITA FMI Yamaha 26:27.083 10 1 lap 0:29.292 2:20.477 1 42.925
26 75 Wouts, Kevin BEL DMSB Kawasaki 26:28.152 10 1 lap 0:01.069 2:25.894 2 41.331
27 215 Lynggaard, Kasper DEN DMU Kawasaki 26:33.603 10 1 lap 0:05.451 2:27.874 3 40.778
28 74 Steinbergs, Ivo LAT LAMSF Kawasaki 26:42.274 10 1 lap 0:08.671 2:31.662 3 39.759
29 61 Brakke, Herjan NED KNMV Yamaha 26:48.658 10 1 lap 0:06.384 2:24.055 1 41.859
30 127 Eriksson, Toni FIN SML Kawasaki 26:50.061 10 1 lap 0:01.403 2:29.646 2 40.295
31 387 Martens, Yentel BEL MUL KTM 26:57.548 10 1 lap 0:07.487 2:26.425 3 41.181
32 115 Campano Jimenez, Carlos ESP RFME Yamaha 26:57.570 10 1 lap 0:00.022 2:27.249 3 40.951
33 68 Reijnders, Stuwey NED KNMV Suzuki 27:07.426 10 1 lap 0:09.856 2:25.638 2 41.404
34 45 Leonce, Loic FRA FFM Aprilia 27:32.568 10 1 lap 0:25.142 2:30.925 3 39.954
35 49 Schmidinger, Günter AUT OeAMTC Honda 27:47.950 10 1 lap 0:15.382 2:32.629 3 39.508
36 41 Smith, Alfie GBR ACU Aprilia 6:11.156 2 9 laps 8 laps 2:37.166 2 38.367
37 141 Church, Tom GBR ACU KTM 1:30.913 0 11 laps 2 laps 0:00.000 0 0

DIMANCHE

MX1 – Warm-up – Classification
Pos Nr Rider Nat. Fed. Bike Bestlaptime in lap Diff. First Diff. Prev. Tot. Laps Speed

1 777 Bobryshev, Evgeny RUS MFR Honda 2:07.048 4 0:00.000 0:00.000 7 47.462
2 222 Cairoli, Antonio ITA FMI KTM 2:07.976 5 0:00.928 0:00.928 6 47.118
3 999 Goncalves, Rui POR FMP Honda 2:09.462 5 0:02.414 0:01.486 6 46.577
4 24 Simpson, Shaun GBR ACU Honda 2:09.784 5 0:02.736 0:00.322 7 46.462
5 14 de Reuver, Marc NED KNMV Yamaha 2:09.908 5 0:02.860 0:00.124 5 46.417
6 6 Leok, Tanel EST EMF TM 2:10.258 2 0:03.210 0:00.350 6 46.293
7 9 de Dycker, Ken BEL FMB Honda 2:11.378 6 0:04.330 0:01.120 6 45.898
8 121 Boog, Xavier FRA FFM Kawasaki 2:13.035 8 0:05.987 0:01.657 8 45.326
9 7 Barragan, Jonathan ESP RFME Kawasaki 2:13.346 8 0:06.298 0:00.311 8 45.221
10 25 Desalle, Clement BEL FMB Suzuki 2:13.903 5 0:06.855 0:00.557 7 45.033
11 19 Philippaerts, David ITA FMI Yamaha 2:14.405 5 0:07.357 0:00.502 5 44.864
12 75 Wouts, Kevin BEL DMSB Kawasaki 2:15.007 6 0:07.959 0:00.602 7 44.664
13 141 Church, Tom GBR ACU KTM 2:15.670 3 0:08.622 0:00.663 5 44.446
14 68 Reijnders, Stuwey NED KNMV Suzuki 2:16.472 2 0:09.424 0:00.802 7 44.185
15 387 Martens, Yentel BEL MUL KTM 2:16.546 3 0:09.498 0:00.074 6 44.161
16 20 Aranda, Gregory FRA FFM Kawasaki 2:17.404 6 0:10.356 0:00.858 6 43.885
17 2 Nagl, Maximilian GER DMSB KTM 2:17.952 4 0:10.904 0:00.548 4 43.711
18 52 Walkner, Matthias AUT OeAMTC KTM 2:17.964 6 0:10.916 0:00.012 7 43.707
19 67 Tiainen, Santtu FIN SML Kawasaki 2:18.094 5 0:11.046 0:00.130 7 43.666
20 61 Brakke, Herjan NED KNMV Yamaha 2:18.521 2 0:11.473 0:00.427 5 43.531
21 55 Potisek, Milko FRA FFM Kawasaki 2:18.776 6 0:11.728 0:00.255 6 43.451
22 115 Campano Jimenez, Carlos ESP RFME Yamaha 2:18.866 7 0:11.818 0:00.090 7 43.423
23 442 Van Beveren, Adrien FRA FFM Yamaha 2:18.997 6 0:11.949 0:00.131 7 43.382
24 71 Gijsel, Roy NED KNMV Suzuki 2:19.771 2 0:12.723 0:00.774 5 43.142
25 60 Van Daele, Marvin BEL FMB Honda 2:20.124 7 0:13.076 0:00.353 7 43.033
26 260 Nyegaard, Remi NOR NMF Yamaha 2:20.125 7 0:13.077 0:00.001 7 43.033
27 65 Van Rooi, Ronnie NED KNMV Kawasaki 2:20.444 4 0:13.396 0:00.319 6 42.935
28 215 Lynggaard, Kasper DEN DMU Kawasaki 2:20.602 5 0:13.554 0:00.158 5 42.887
29 74 Steinbergs, Ivo LAT LAMSF Kawasaki 2:20.609 6 0:13.561 0:00.007 6 42.885
30 10 Boissiere, Anthony FRA FFM Yamaha 2:21.539 3 0:14.491 0:00.930 5 42.603
31 22 Strijbos, Kevin BEL FMB Suzuki 2:22.804 3 0:15.756 0:01.265 7 42.226
32 183 Frossard, Steven FRA FFM Yamaha 2:22.869 5 0:15.821 0:00.065 7 42.206
33 127 Eriksson, Toni FIN SML Kawasaki 2:23.001 4 0:15.953 0:00.132 6 42.168
34 49 Schmidinger, Günter AUT OeAMTC Honda 2:25.816 3 0:18.768 0:02.815 6 41.353
35 39 Guarneri, Davide ITA FMI Kawasaki 2:26.717 3 0:19.669 0:00.901 5 41.1
36 41 Smith, Alfie GBR ACU Aprilia 2:31.457 2 0:24.409 0:04.740 4 39.813
37 45 Leonce, Loic FRA FFM Aprilia 2:51.452 1 0:44.404 0:19.995 1 35.17

1 ÈRE MANCHE MX1

Holeshot de Cairoli et chuite de Bobryshev qui entraine Ken De Dycker, suivi des chutes de De Reuver et Strijbos.. Desalle passe premier, Frossard second Cairoli 3 Ème.. Cairoli passe Frossard.. Grosse bagarre entre Cairoli et Desalle à 28 mn.. Chute de Cairoli à 25 min en essayant de passer Desalle.. Il repart.. Frossard passe second.. Chute de Guarneri à 19 mn.. Bobryshev de retour à la 8 Ème place à 16 mn (!).. Cairoli passe second à 7 mn.. Retour de folie de Bobryshev, il passe 6 Ème à 5 mn.. Cairoli passe premier dans les tous derniers tours..! Chute de De Dycker.. Goncalves passe Frossard dans le dernier tour.. Frossard termine 4 Ème..

MX1 – Grand Prix Race 1 – Classification
Pos Nr Rider Nat. Fed. Bike Time laps Diff. First Diff. Prev. Bestlaptime in lap Speed

1 222 Cairoli, Antonio ITA FMI KTM 39:57.975 17 0:00.000 0:00.000 2:15.311 2 44.564
2 25 Desalle, Clement BEL FMB Suzuki 40:07.101 17 0:09.126 0:09.126 2:16.420 2 44.202
3 999 Goncalves, Rui POR FMP Honda 40:27.283 17 0:29.308 0:20.182 2:17.652 2 43.806
4 183 Frossard, Steven FRA FFM Yamaha 40:27.318 17 0:29.343 0:00.035 2:16.373 8 44.217
5 2 Nagl, Maximilian GER DMSB KTM 40:30.164 17 0:32.189 0:02.846 2:16.349 5 44.225
6 777 Bobryshev, Evgeny RUS MFR Honda 40:49.227 17 0:51.252 0:19.063 2:16.382 10 44.214
7 19 Philippaerts, David ITA FMI Yamaha 40:56.603 17 0:58.628 0:07.376 2:18.971 3 43.39
8 6 Leok, Tanel EST EMF TM 41:05.676 17 1:07.701 0:09.073 2:17.598 9 43.823
9 7 Barragan, Jonathan ESP RFME Kawasaki 41:18.397 17 1:20.422 0:12.721 2:17.916 1 43.722
10 121 Boog, Xavier FRA FFM Kawasaki 41:30.378 17 1:32.403 0:11.981 2:20.069 1 43.05
11 24 Simpson, Shaun GBR ACU Honda 41:31.239 17 1:33.264 0:00.861 2:18.936 8 43.401
12 9 de Dycker, Ken BEL FMB Honda 42:19.081 17 2:21.106 0:47.842 2:17.173 4 43.959
13 10 Boissiere, Anthony FRA FFM Yamaha 42:19.676 17 2:21.701 0:00.595 2:21.094 2 42.737
14 60 Van Daele, Marvin BEL FMB Honda 42:27.322 17 2:29.347 0:07.646 2:23.811 5 41.93
15 61 Brakke, Herjan NED KNMV Yamaha 39:59.563 16 1 lap 1 lap 2:22.114 2 42.431
16 22 Strijbos, Kevin BEL FMB Suzuki 40:13.789 16 1 lap 0:14.226 2:21.576 2 42.592
17 141 Church, Tom GBR ACU KTM 40:15.544 16 1 lap 0:01.755 2:23.495 2 42.022
18 75 Wouts, Kevin BEL DMSB Kawasaki 40:18.763 16 1 lap 0:03.219 2:24.531 2 41.721
19 115 Campano Jimenez, Carlos ESP RFME Yamaha 40:19.977 16 1 lap 0:01.214 2:23.592 1 41.994
20 68 Reijnders, Stuwey NED KNMV Suzuki 40:23.414 16 1 lap 0:03.437 2:22.824 3 42.22
21 387 Martens, Yentel BEL MUL KTM 40:36.265 16 1 lap 0:12.851 2:25.292 4 41.503
22 442 Van Beveren, Adrien FRA FFM Yamaha 40:52.274 16 1 lap 0:16.009 2:26.072 6 41.281
23 74 Steinbergs, Ivo LAT LAMSF Kawasaki 41:54.202 16 1 lap 1:01.928 2:29.522 2 40.329
24 65 Van Rooi, Ronnie NED KNMV Kawasaki 41:59.911 16 1 lap 0:05.709 2:20.903 2 42.795
25 41 Smith, Alfie GBR ACU Aprilia 42:01.487 16 1 lap 0:01.576 2:27.046 4 41.008
26 67 Tiainen, Santtu FIN SML Kawasaki 35:33.952 14 3 laps 2 laps 2:24.301 3 41.788
27 55 Potisek, Milko FRA FFM Kawasaki 35:36.003 14 3 laps 0:02.051 2:23.192 4 42.111
28 52 Walkner, Matthias AUT OeAMTC KTM 38:15.293 14 3 laps 2:39.290 2:24.104 3 41.845
29 45 Leonce, Loic FRA FFM Aprilia 28:48.229 11 6 laps 3 laps 2:27.057 7 41.005
30 14 de Reuver, Marc NED KNMV Yamaha 24:53.754 10 7 laps 1 lap 2:18.378 7 43.576
31 215 Lynggaard, Kasper DEN DMU Kawasaki 20:20.018 8 9 laps 2 laps 2:24.362 7 41.77
32 260 Nyegaard, Remi NOR NMF Yamaha 20:29.571 8 9 laps 0:09.553 2:23.971 2 41.883
33 127 Eriksson, Toni FIN SML Kawasaki 18:26.865 7 10 laps 1 lap 2:29.632 4 40.299
34 39 Guarneri, Davide ITA FMI Kawasaki 16:38.523 6 11 laps 1 lap 2:21.877 2 42.502
35 49 Schmidinger, Günter AUT OeAMTC Honda 16:39.965 6 11 laps 0:01.442 2:27.532 2 40.872
36 71 Gijsel, Roy NED KNMV Suzuki 14:40.920 5 12 laps 1 lap 2:28.925 3 40.49
37 20 Aranda, Gregory FRA FFM Kawasaki 0:56.666 0 17 laps 5 laps 0:00.000 0 0

2 ÈME MANCHE MX1

Holeshot de Cairoli chute de Barragan.. Chute de De Reuver quelques virages plus loin.. Nouvelle chute de Barragan à 27 mn.. Chute de Cairoli à 26 min , Bobryshev prend la tête.. De Dycker passe Desalle à 19 mn et devient 4 Ème.. Nouvelle chute de Guarneri à 13 mn.. Desalle repasse De Dycker à 10 min de la fin de manche.. Steven Frossard en difficultés (’8..) à 8 mn.. Goncalves passe Desalle à 3 min + 2 tours.. Nagl passe Bobryshev dans les 2 derniers tours.. Goncalves abandonne dans le dernier tour sur casse mécanique et laisse le podium à Nagl..!!

MX1 – Grand Prix Race 2 – Classification
Pos Nr Rider Nat. Fed. Bike Time laps Diff. First Diff. Prev. Bestlaptime in lap Speed

1 222 Cairoli, Antonio ITA FMI KTM 42:30.771 17 0:00.000 0:00.000 2:17.214 1 43.946
2 2 Nagl, Maximilian GER DMSB KTM 42:34.280 17 0:03.509 0:03.509 2:22.042 1 42.452
3 777 Bobryshev, Evgeny RUS MFR Honda 42:45.306 17 0:14.535 0:11.026 2:19.279 1 43.294
4 25 Desalle, Clement BEL FMB Suzuki 43:16.238 17 0:45.467 0:30.932 2:25.134 2 41.548
5 6 Leok, Tanel EST EMF TM 43:21.598 17 0:50.827 0:05.360 2:26.059 6 41.285
6 183 Frossard, Steven FRA FFM Yamaha 43:44.014 17 1:13.243 0:22.416 2:25.350 1 41.486
7 24 Simpson, Shaun GBR ACU Honda 44:04.265 17 1:33.494 0:20.251 2:27.325 3 40.93
8 9 de Dycker, Ken BEL FMB Honda 44:28.447 17 1:57.676 0:24.182 2:25.152 3 41.543
9 19 Philippaerts, David ITA FMI Yamaha 44:29.875 17 1:59.104 0:01.428 2:27.234 3 40.955
10 14 de Reuver, Marc NED KNMV Yamaha 44:38.158 17 2:07.387 0:08.283 2:29.350 5 40.375
11 60 Van Daele, Marvin BEL FMB Honda 44:47.230 17 2:16.459 0:09.072 2:32.008 9 39.669
12 121 Boog, Xavier FRA FFM Kawasaki 45:13.218 17 2:42.447 0:25.988 2:31.562 5 39.786
13 999 Goncalves, Rui POR FMP Honda 40:36.719 16 1 lap 1 lap 2:27.593 3 40.856
14 7 Barragan, Jonathan ESP RFME Kawasaki 42:47.559 16 1 lap 2:10.840 2:28.684 12 40.556
15 22 Strijbos, Kevin BEL FMB Suzuki 42:58.953 16 1 lap 0:11.394 2:32.151 3 39.632
16 52 Walkner, Matthias AUT OeAMTC KTM 43:09.953 16 1 lap 0:11.000 2:36.758 7 38.467
17 61 Brakke, Herjan NED KNMV Yamaha 43:22.096 16 1 lap 0:12.143 2:33.220 1 39.355
18 10 Boissiere, Anthony FRA FFM Yamaha 43:53.023 16 1 lap 0:30.927 2:34.492 4 39.031
19 55 Potisek, Milko FRA FFM Kawasaki 44:05.839 16 1 lap 0:12.816 2:34.791 5 38.956

20 67 Tiainen, Santtu FIN SML Kawasaki 44:07.230 16 1 lap 0:01.391 2:36.161 3 38.614
21 442 Van Beveren, Adrien FRA FFM Yamaha 44:14.103 16 1 lap 0:06.873 2:35.374 3 38.81
22 215 Lynggaard, Kasper DEN DMU Kawasaki 44:32.483 16 1 lap 0:18.380 2:38.374 5 38.074
23 68 Reijnders, Stuwey NED KNMV Suzuki 45:02.455 16 1 lap 0:29.972 2:34.747 4 38.967
24 65 Van Rooi, Ronnie NED KNMV Kawasaki 42:52.935 15 2 laps 1 lap 2:37.883 5 38.193
25 39 Guarneri, Davide ITA FMI Kawasaki 43:30.883 15 2 laps 0:37.948 2:35.764 6 38.712
26 74 Steinbergs, Ivo LAT LAMSF Kawasaki 44:06.727 15 2 laps 0:35.844 2:39.735 2 37.75
27 49 Schmidinger, Günter AUT OeAMTC Honda 22:51.185 8 9 laps 7 laps 2:38.145 2 38.13
28 41 Smith, Alfie GBR ACU Aprilia 14:23.841 5 12 laps 3 laps 2:38.936 3 37.94
29 260 Nyegaard, Remi NOR NMF Yamaha 14:30.793 5 12 laps 0:06.952 2:37.187 3 38.362
30 115 Campano Jimenez, Carlos ESP RFME Yamaha 11:24.558 4 13 laps 1 lap 2:35.357 2 38.814
31 387 Martens, Yentel BEL MUL KTM 6:24.286 2 15 laps 2 laps 2:41.174 2 37.413
32 75 Wouts, Kevin BEL DMSB Kawasaki 6:45.722 2 15 laps 0:21.436 2:30.288 1 40.123
33 141 Church, Tom GBR ACU KTM 4:24.529 1 16 laps 1 lap 3:11.563 1 31.478

MX1 – GP Classification
Pos Nr Rider Nat. Fed. Bike Race 1 Race 2 Total

1 222 Cairoli, Antonio ITA FMI KTM 25 25 50
2 25 Desalle, Clement BEL FMB Suzuki 22 18 40
3 2 Nagl, Maximilian GER DMSB KTM 16 22 38
4 777 Bobryshev, Evgeny RUS MFR Honda 15 20 35
5 183 Frossard, Steven FRA FFM Yamaha 18 15 33
6 6 Leok, Tanel EST EMF TM 13 16 29
7 999 Goncalves, Rui POR FMP Honda 20 8 28
8 19 Philippaerts, David ITA FMI Yamaha 14 12 26
9 24 Simpson, Shaun GBR ACU Honda 10 14 24
10 9 de Dycker, Ken BEL FMB Honda 9 13 22
11 121 Boog, Xavier FRA FFM Kawasaki 11 9 20
12 7 Barragan, Jonathan ESP RFME Kawasaki 12 7 19
13 60 Van Daele, Marvin BEL FMB Honda 7 10 17
14 14 de Reuver, Marc NED KNMV Yamaha 0 11 11
15 22 Strijbos, Kevin BEL FMB Suzuki 5 6 11
16 10 Boissiere, Anthony FRA FFM Yamaha 8 3 11
17 61 Brakke, Herjan NED KNMV Yamaha 6 4 10
18 52 Walkner, Matthias AUT OeAMTC KTM 0 5 5
19 141 Church, Tom GBR ACU KTM 4 0 4
20 75 Wouts, Kevin BEL DMSB Kawasaki 3 0 3
21 55 Potisek, Milko FRA FFM Kawasaki 0 2 2
22 115 Campano Jimenez, Carlos ESP RFME Yamaha 2 0 2
23 67 Tiainen, Santtu FIN SML Kawasaki 0 1 1
24 68 Reijnders, Stuwey NED KNMV Suzuki 1 0 1
25 442 Van Beveren, Adrien FRA FFM Yamaha 0 0 0
26 215 Lynggaard, Kasper DEN DMU Kawasaki 0 0 0
27 65 Van Rooi, Ronnie NED KNMV Kawasaki 0 0 0
28 39 Guarneri, Davide ITA FMI Kawasaki 0 0 0
29 74 Steinbergs, Ivo LAT LAMSF Kawasaki 0 0 0
30 49 Schmidinger, Günter AUT OeAMTC Honda 0 0 0
31 41 Smith, Alfie GBR ACU Aprilia 0 0 0
32 260 Nyegaard, Remi NOR NMF Yamaha 0 0 0
33 387 Martens, Yentel BEL MUL KTM 0 0 0
34 45 Leonce, Loic FRA FFM Aprilia 0 0 0
35 127 Eriksson, Toni FIN SML Kawasaki 0 0 0
36 71 Gijsel, Roy NED KNMV Suzuki 0 0 0
37 20 Aranda, Gregory FRA FFM Kawasaki 0 0 0

MX1 – World Championship Classification
Pos Nr Rider Nat. Total BUL NED USA BRA FRA POR ESP SWE GER LAT BEL CZE GBR EUR ITA

1 222 Cairoli, A. ITA 466 14-11 25-22 22-10 25-22 22-20 22-22 22-25 16-22 22-22 25-25 25-25 - - - - - - - -
2 25 Desalle, C. BEL 414 22-25 16-15 25-25 18-18 10-25 25-25 16-20 13-14 16-20 13-13 22-18 - - - - - - - -
3 183 Frossard, S. FRA 403 25-22 22-16 11-0 20-16 25-22 20-14 25-12 25-25 20-6 22-22 18-15 - - - - - - - -
4 777 Bobryshev, E. RUS 369 9-18 11-14 15-20 13-10 15-16 18-18 13-14 22-18 25-25 20-20 15-20 - - - - - - - -
5 2 Nagl, M. GER 349 20-15 20-25 20-22 16-15 14-12 13-0 18-15 14-11 18-14 18-11 16-22 - - - - - - - -
6 999 Goncalves, Rui POR 309 13-16 15-18 9-18 11-8 7-18 14-20 14-11 12-13 14-18 14-18 20-8 - - - - - - - -
7 19 Philippaerts, D. ITA 308 18-7 18-20 16-12 22-25 20-3 0-0 20-18 6-20 12-13 16-16 14-12 - - - - - - - -
8 9 de Dycker, Ken BEL 250 0-4 14-13 0-1 15-11 16-13 15-15 10-10 18-15 15-16 15-12 9-13 - - - - - - - -
9 121 Boog, Xavier FRA 235 10-13 4-7 7-11 12-13 18-14 16-12 11-13 20-10 8-4 12-0 11-9 - - - - - - - -
10 7 Barragan, J. ESP 233 15-20 7-11 12-13 4-12 6-15 8-13 12-16 0-12 13-15 0-10 12-7 - - - - - - - -
11 11 Ramon, Steve BEL 229 11-9 13-9 0-14 14-20 9-4 6-16 15-9 15-16 11-12 11-15 - - - - - - - - - -
12 6 Leok, Tanel EST 198 0-12 12-12 6-6 2-9 11-11 11-11 8-22 7-0 6-0 9-14 13-16 - - - - - - - -
13 22 Strijbos, K. BEL 176 12-14 5-3 18-16 10-14 12-10 10-10 4-5 9-9 0-0 4-0 5-6 - - - - - - - -
14 24 Simpson, Shaun GBR 149 8-5 1-4 5-15 8-3 8-9 9-9 5-0 0-5 10-9 6-6 10-14 - - - - - - - -
15 10 Boissiere, A. FRA 146 6-8 6-8 14-9 9-0 5-8 0-8 7-8 10-6 0-7 8-8 8-3 - - - - - - - -
16 39 Guarneri, D. ITA 122 16-10 9-10 8-5 - - 2-5 12-0 9-0 0-8 9-0 10-9 0-0 - - - - - - - -
17 20 Aranda, G. FRA 61 - - - - 4-7 7-5 0-7 0-0 - - 11-0 5-8 7-0 0-0 - - - - - - - -
18 14 de Reuver, M. NED 55 3-0 10-0 0-0 3-7 - - 0-0 - - - - 7-11 0-3 0-11 - - - - - - - -..

MX2 – Free Practice – Classification
Pos Nr Rider Nat. Fed. Bike Bestlaptime in lap Diff. First Diff. Prev. Tot. Laps Speed

1 84 Herlings, Jeffrey NED KNMV KTM 2:04.099 10 0:00.000 0:00.000 10 48.59
2 94 Roczen, Ken GER DMSB KTM 2:04.542 8 0:00.443 0:00.443 11 48.417
3 21 Paulin, Gautier FRA MCM Yamaha 2:05.437 7 0:01.338 0:00.895 9 48.072
4 152 Petrov, Petar BUL BMF Yamaha 2:05.486 11 0:01.387 0:00.049 12 48.053
5 99 Anstie, Max GBR AMA Kawasaki 2:05.632 9 0:01.533 0:00.146 10 47.997
6 89 van Horebeek, Jeremy BEL FMB KTM 2:05.976 6 0:01.877 0:00.344 9 47.866
7 7 Tonus, Arnaud SUI FMS Yamaha 2:07.079 8 0:02.980 0:01.103 11 47.451
8 55 Kras, Mike NED KNMV Suzuki 2:07.430 9 0:03.331 0:00.351 9 47.32
9 112 Heibye, Even NOR NMF KTM 2:07.943 9 0:03.844 0:00.513 9 47.13
10 34 Roelants, Joel BEL FMB KTM 2:08.569 7 0:04.470 0:00.626 10 46.901
11 77 Lupino, Alessandro ITA FMI Husqvarna 2:08.696 7 0:04.597 0:00.127 9 46.855
12 100 Searle, Tommy GBR ACU Kawasaki 2:08.861 8 0:04.762 0:00.165 11 46.795
13 37 Teillet, Valentin FRA FFM Suzuki 2:09.219 7 0:05.120 0:00.358 8 46.665
14 151 Kullas, Harri FIN SML Yamaha 2:09.356 10 0:05.257 0:00.137 12 46.616
15 45 Nicholls, Jake GBR ACU KTM 2:09.813 8 0:05.714 0:00.457 9 46.451
16 91 Karro, Matiss LAT LAMSF Honda 2:10.078 9 0:05.979 0:00.265 11 46.357
17 76 Rauchenecker, Pascal AUT OeAMTC KTM 2:10.080 6 0:05.981 0:00.002 12 46.356
18 64 Bengtsson, Filip SWE SVEMO KTM 2:10.197 9 0:06.098 0:00.117 10 46.314
19 195 Justs, Roberts LAT LAMSF Honda 2:10.580 12 0:06.481 0:00.383 12 46.179
20 17 Butron Oliva, Antonio Jose ESP RFME KTM 2:10.738 2 0:06.639 0:00.158 9 46.123
21 131 Aubin, Nicolas FRA FFM KTM 2:10.997 8 0:06.898 0:00.259 10 46.032
22 170 Leib, Michael USA FSM Husqvarna 2:11.117 8 0:07.018 0:00.120 12 45.989
23 911 Tixier, Jordi FRA FFM KTM 2:11.245 9 0:07.146 0:00.128 12 45.945
24 202 Larrieu, Loic FRA FFM KTM 2:12.672 8 0:08.573 0:01.427 10 45.45

25 388 Söderberg, Ludvig FIN SML Kawasaki 2:12.701 13 0:08.602 0:00.029 13 45.441
26 128 Monticelli, Ivo ITA FMI Honda 2:14.679 3 0:10.580 0:01.978 7 44.773
27 102 Smitka, Petr CZE ACCR TM 2:14.982 10 0:10.883 0:00.303 10 44.673
28 114 Booker, Jordan GBR ACU KTM 2:15.060 6 0:10.961 0:00.078 11 44.647
29 33 Lieber, Julien BEL MUL KTM 2:15.789 3 0:11.690 0:00.729 12 44.407
30 123 Bernardini, Samuele ITA FMI KTM 2:17.343 7 0:13.244 0:01.554 10 43.905
31 611 Cociu, Mihail MDA FRM Honda 2:18.837 5 0:14.738 0:01.494 10 43.432
32 550 Mitchell, Sean ZIM ZMSF KTM 2:20.283 3 0:16.184 0:01.446 10 42.985
33 300 Golovkin, Viacheslav RUS LAMSF Kawasaki 2:20.860 12 0:16.761 0:00.577 12 42.808

MX2 – Pre-Qualifying Practice – Classification
Pos Nr Rider Nat. Fed. Bike Bestlaptime in lap Diff. First Diff. Prev. Tot. Laps Speed

1 84 Herlings, Jeffrey NED KNMV KTM 2:08.455 2 0:00.000 0:00.000 9 46.943
2 99 Anstie, Max GBR AMA Kawasaki 2:10.063 2 0:01.608 0:01.608 9 46.362
3 21 Paulin, Gautier FRA MCM Yamaha 2:10.189 2 0:01.734 0:00.126 7 46.317
4 100 Searle, Tommy GBR ACU Kawasaki 2:11.557 4 0:03.102 0:01.368 6 45.836
5 94 Roczen, Ken GER DMSB KTM 2:11.675 5 0:03.220 0:00.118 9 45.795
6 89 van Horebeek, Jeremy BEL FMB KTM 2:11.817 2 0:03.362 0:00.142 6 45.745
7 152 Petrov, Petar BUL BMF Yamaha 2:11.890 5 0:03.435 0:00.073 10 45.72
8 7 Tonus, Arnaud SUI FMS Yamaha 2:12.141 2 0:03.686 0:00.251 7 45.633
9 55 Kras, Mike NED KNMV Suzuki 2:13.137 6 0:04.682 0:00.996 8 45.292
10 34 Roelants, Joel BEL FMB KTM 2:13.348 8 0:04.893 0:00.211 8 45.22
11 112 Heibye, Even NOR NMF KTM 2:13.854 6 0:05.399 0:00.506 9 45.049
12 131 Aubin, Nicolas FRA FFM KTM 2:15.531 4 0:07.076 0:01.677 8 44.492
13 151 Kullas, Harri FIN SML Yamaha 2:15.752 2 0:07.297 0:00.221 10 44.419
14 45 Nicholls, Jake GBR ACU KTM 2:16.258 1 0:07.803 0:00.506 8 44.254
15 202 Larrieu, Loic FRA FFM KTM 2:16.368 6 0:07.913 0:00.110 9 44.219
16 91 Karro, Matiss LAT LAMSF Honda 2:16.435 4 0:07.980 0:00.067 9 44.197
17 37 Teillet, Valentin FRA FFM Suzuki 2:16.486 8 0:08.031 0:00.051 10 44.18
18 911 Tixier, Jordi FRA FFM KTM 2:17.193 5 0:08.738 0:00.707 12 43.953

19 77 Lupino, Alessandro ITA FMI Husqvarna 2:17.402 5 0:08.947 0:00.209 9 43.886
20 195 Justs, Roberts LAT LAMSF Honda 2:18.339 5 0:09.884 0:00.937 10 43.589
21 388 Söderberg, Ludvig FIN SML Kawasaki 2:18.476 6 0:10.021 0:00.137 10 43.545
22 17 Butron Oliva, Antonio Jose ESP RFME KTM 2:18.998 2 0:10.543 0:00.522 9 43.382
23 64 Bengtsson, Filip SWE SVEMO KTM 2:19.422 10 0:10.967 0:00.424 10 43.25
24 170 Leib, Michael USA FSM Husqvarna 2:19.590 9 0:11.135 0:00.168 10 43.198
25 33 Lieber, Julien BEL MUL KTM 2:21.777 7 0:13.322 0:02.187 10 42.532
26 76 Rauchenecker, Pascal AUT OeAMTC KTM 2:21.777 9 0:13.322 0:00.000 10 42.532
27 114 Booker, Jordan GBR ACU KTM 2:23.380 3 0:14.925 0:01.603 10 42.056
28 102 Smitka, Petr CZE ACCR TM 2:24.392 6 0:15.937 0:01.012 9 41.761
29 123 Bernardini, Samuele ITA FMI KTM 2:26.046 3 0:17.591 0:01.654 8 41.288
30 611 Cociu, Mihail MDA FRM Honda 2:27.839 4 0:19.384 0:01.793 8 40.788
31 300 Golovkin, Viacheslav RUS LAMSF Kawasaki 2:28.839 6 0:20.384 0:01.000 9 40.514
32 128 Monticelli, Ivo ITA FMI Honda 2:29.126 5 0:20.671 0:00.287 9 40.436
33 550 Mitchell, Sean ZIM ZMSF KTM 2:29.692 3 0:21.237 0:00.566 9 40.283

MANCHE QUALIFICATIVE MX2

Holeshot de Herlings.. Bon départ de Jordi Tixier (’6..).. Chute de Jeremy Van Horebeek.. Paulin passe Searle à 12 min de la fin de manche.. Max Anstie très rapide.. Chute de Tommy Searle avec Arnaud Tonus dans le tout dernier tour..

MX2 – Qualifying Race – Classification
Pos Nr Rider Nat. Fed. Bike Time laps Diff. First Diff. Prev. Bestlaptime in lap Speed

1 84 Herlings, Jeffrey NED KNMV KTM 24:58.792 11 0:00.000 0:00.000 2:07.420 1 47.324
2 94 Roczen, Ken GER DMSB KTM 25:02.471 11 0:03.679 0:03.679 2:10.657 1 46.151
3 99 Anstie, Max GBR AMA Kawasaki 25:51.276 11 0:52.484 0:48.805 2:13.795 2 45.069
4 21 Paulin, Gautier FRA MCM Yamaha 25:53.636 11 0:54.844 0:02.360 2:13.235 2 45.258
5 89 van Horebeek, Jeremy BEL FMB KTM 26:05.084 11 1:06.292 0:11.448 2:13.466 2 45.18
6 152 Petrov, Petar BUL BMF Yamaha 26:20.249 11 1:21.457 0:15.165 2:14.936 3 44.688
7 100 Searle, Tommy GBR ACU Kawasaki 26:29.601 11 1:30.809 0:09.352 2:13.593 1 45.137
8 112 Heibye, Even NOR NMF KTM 26:30.791 11 1:31.999 0:01.190 2:17.000 3 44.015
9 7 Tonus, Arnaud SUI FMS Yamaha 26:35.048 11 1:36.256 0:04.257 2:15.452 2 44.518
10 45 Nicholls, Jake GBR ACU KTM 26:37.911 11 1:39.119 0:02.863 2:18.044 4 43.682
11 151 Kullas, Harri FIN SML Yamaha 26:39.454 11 1:40.662 0:01.543 2:18.864 10 43.424
12 34 Roelants, Joel BEL FMB KTM 26:41.423 11 1:42.631 0:01.969 2:17.903 4 43.726
13 37 Teillet, Valentin FRA FFM Suzuki 26:58.554 11 1:59.762 0:17.131 2:19.356 1 43.27
14 76 Rauchenecker, Pascal AUT OeAMTC KTM 26:59.859 11 2:01.067 0:01.305 2:18.336 2 43.59
15 55 Kras, Mike NED KNMV Suzuki 27:00.479 11 2:01.687 0:00.620 2:18.988 4 43.385
16 911 Tixier, Jordi FRA FFM KTM 27:03.435 11 2:04.643 0:02.956 2:19.859 5 43.115
17 91 Karro, Matiss LAT LAMSF Honda 27:07.369 11 2:08.577 0:03.934 2:20.896 6 42.798
18 17 Butron Oliva, Antonio Jose ESP RFME KTM 27:11.556 11 2:12.764 0:04.187 2:21.486 3 42.619
19 388 Söderberg, Ludvig FIN SML Kawasaki 27:27.525 11 2:28.733 0:15.969 2:21.510 3 42.612
20 131 Aubin, Nicolas FRA FFM KTM 25:05.112 10 1 lap 1 lap 2:22.031 7 42.456
21 64 Bengtsson, Filip SWE SVEMO KTM 25:07.646 10 1 lap 0:02.534 2:22.548 3 42.302
22 202 Larrieu, Loic FRA FFM KTM 25:11.122 10 1 lap 0:03.476 2:21.489 10 42.618
23 195 Justs, Roberts LAT LAMSF Honda 25:36.657 10 1 lap 0:25.535 2:22.955 1 42.181
24 114 Booker, Jordan GBR ACU KTM 26:17.113 10 1 lap 0:40.456 2:27.766 2 40.808
25 33 Lieber, Julien BEL MUL KTM 26:18.645 10 1 lap 0:01.532 2:27.975 2 40.75
26 102 Smitka, Petr CZE ACCR TM 26:22.053 10 1 lap 0:03.408 2:27.280 2 40.942
27 550 Mitchell, Sean ZIM ZMSF KTM 26:27.427 10 1 lap 0:05.374 2:27.499 2 40.882
28 611 Cociu, Mihail MDA FRM Honda 27:09.173 10 1 lap 0:41.746 2:31.693 3 39.751
29 300 Golovkin, Viacheslav RUS LAMSF Kawasaki 27:13.496 10 1 lap 0:04.323 2:32.131 2 39.637
30 123 Bernardini, Samuele ITA FMI KTM 26:37.547 9 2 laps 1 lap 2:25.455 1 41.456
31 170 Leib, Michael USA FSM Husqvarna 13:26.947 5 6 laps 4 laps 2:22.218 5 42.4
32 77 Lupino, Alessandro ITA FMI Husqvarna 8:24.299 3 8 laps 2 laps 2:23.561 2 42.003

DIMANCHE

MX2 – Warm-up – Classification
Pos Nr Rider Nat. Fed. Bike Bestlaptime in lap Diff. First Diff. Prev. Tot. Laps Speed

1 84 Herlings, Jeffrey NED KNMV KTM 2:07.162 7 0:00.000 0:00.000 7 47.42
2 21 Paulin, Gautier FRA MCM Yamaha 2:08.776 2 0:01.614 0:01.614 4 46.825
3 99 Anstie, Max GBR AMA Kawasaki 2:10.008 4 0:02.846 0:01.232 7 46.382
4 152 Petrov, Petar BUL BMF Yamaha 2:10.630 4 0:03.468 0:00.622 8 46.161
5 89 van Horebeek, Jeremy BEL FMB KTM 2:11.595 3 0:04.433 0:00.965 6 45.822
6 7 Tonus, Arnaud SUI FMS Yamaha 2:12.138 4 0:04.976 0:00.543 8 45.634
7 100 Searle, Tommy GBR ACU Kawasaki 2:12.191 3 0:05.029 0:00.053 8 45.616
8 34 Roelants, Joel BEL FMB KTM 2:12.382 7 0:05.220 0:00.191 7 45.55
9 94 Roczen, Ken GER DMSB KTM 2:12.725 6 0:05.563 0:00.343 7 45.432
10 112 Heibye, Even NOR NMF KTM 2:13.570 4 0:06.408 0:00.845 7 45.145
11 911 Tixier, Jordi FRA FFM KTM 2:13.708 5 0:06.546 0:00.138 6 45.098
12 151 Kullas, Harri FIN SML Yamaha 2:13.945 8 0:06.783 0:00.237 8 45.018
13 45 Nicholls, Jake GBR ACU KTM 2:14.738 5 0:07.576 0:00.793 7 44.754
14 77 Lupino, Alessandro ITA FMI Husqvarna 2:14.821 3 0:07.659 0:00.083 5 44.726
15 55 Kras, Mike NED KNMV Suzuki 2:15.220 4 0:08.058 0:00.399 6 44.594
16 64 Bengtsson, Filip SWE SVEMO KTM 2:15.351 4 0:08.189 0:00.131 7 44.551
17 91 Karro, Matiss LAT LAMSF Honda 2:15.670 7 0:08.508 0:00.319 8 44.446
18 131 Aubin, Nicolas FRA FFM KTM 2:15.760 5 0:08.598 0:00.090 8 44.417
19 388 Söderberg, Ludvig FIN SML Kawasaki 2:15.822 2 0:08.660 0:00.062 7 44.396
20 37 Teillet, Valentin FRA FFM Suzuki 2:15.855 6 0:08.693 0:00.033 7 44.386
21 170 Leib, Michael USA FSM Husqvarna 2:15.954 3 0:08.792 0:00.099 7 44.353
22 76 Rauchenecker, Pascal AUT OeAMTC KTM 2:16.036 3 0:08.874 0:00.082 8 44.327
23 17 Butron Oliva, Antonio Jose ESP RFME KTM 2:16.920 4 0:09.758 0:00.884 8 44.04
24 195 Justs, Roberts LAT LAMSF Honda 2:17.193 4 0:10.031 0:00.273 7 43.953
25 202 Larrieu, Loic FRA FFM KTM 2:18.696 3 0:11.534 0:01.503 7 43.476
26 102 Smitka, Petr CZE ACCR TM 2:21.204 3 0:14.042 0:02.508 6 42.704
27 123 Bernardini, Samuele ITA FMI KTM 2:22.089 3 0:14.927 0:00.885 7 42.438
28 114 Booker, Jordan GBR ACU KTM 2:23.041 6 0:15.879 0:00.952 6 42.156
29 33 Lieber, Julien BEL MUL KTM 2:23.187 2 0:16.025 0:00.146 5 42.113
30 611 Cociu, Mihail MDA FRM Honda 2:24.667 3 0:17.505 0:01.480 6 41.682
31 550 Mitchell, Sean ZIM ZMSF KTM 2:24.969 7 0:17.807 0:00.302 7 41.595
32 300 Golovkin, Viacheslav RUS LAMSF Kawasaki 2:29.677 6 0:22.515 0:04.708 6 40.287

1 ÈRE MANCHE MX2

Holeshot de Ken Roczen.. Herlings va prendre la tête de course de suite.. Gautier Paulin semble moins rapide que hier samedi.. Max Anstie le rattrape.. Paulin se reprend et passe Nicholls.. Abandon de Leib.. Nicholls va aller à la faute.. Chute de Jeffrey Herlings à 16 mn de la fin..! Ken Roczen prend la tête de course dans la foulée.. Herlings va revenir au contact de Roczen à 11 mn, Roczen va commettre une petite faute, Herlings le passe.. Jeffrey Herlings en roue arrière dans le sable défoncé..!! Chute de Paulin avec Searle à 6 min, il perd du temps à redémarrer sa Moto (Paulin..)..! Roczen repasse en tête..! Abandon de Nicolas Aubin à 2 mn + 2 tours.. Abandon de Roelants.. Grosse chute de Ken Roczen dans le dernier tour..!!! (il va perdre l’avant sur le dessus d’une ornière..!).. Victoire de Jeffrey Herlings..!

MX2 – Grand Prix Race 1 – Classification
Pos Nr Rider Nat. Fed. Bike Time laps Diff. First Diff. Prev. Bestlaptime in lap Speed

1 84 Herlings, Jeffrey NED KNMV KTM 40:09.879 18 0:00.000 0:00.000 2:04.029 1 48.618
2 94 Roczen, Ken GER DMSB KTM 40:35.725 18 0:25.846 0:25.846 2:05.910 5 47.891
3 89 van Horebeek, Jeremy BEL FMB KTM 41:04.154 18 0:54.275 0:28.429 2:07.008 1 47.477
4 99 Anstie, Max GBR AMA Kawasaki 41:23.029 18 1:13.150 0:18.875 2:09.708 4 46.489
5 152 Petrov, Petar BUL BMF Yamaha 41:34.732 18 1:24.853 0:11.703 2:11.022 2 46.023
6 100 Searle, Tommy GBR ACU Kawasaki 41:40.149 18 1:30.270 0:05.417 2:09.308 3 46.633
7 21 Paulin, Gautier FRA MCM Yamaha 41:40.676 18 1:30.797 0:00.527 2:09.428 2 46.59
8 45 Nicholls, Jake GBR ACU KTM 42:05.942 18 1:56.063 0:25.266 2:09.524 2 46.555
9 151 Kullas, Harri FIN SML Yamaha 42:18.224 18 2:08.345 0:12.282 2:14.477 5 44.84
10 7 Tonus, Arnaud SUI FMS Yamaha 40:15.116 17 1 lap 1 lap 2:13.470 1 45.179
11 55 Kras, Mike NED KNMV Suzuki 40:21.011 17 1 lap 0:05.895 2:13.428 3 45.193
12 91 Karro, Matiss LAT LAMSF Honda 40:27.626 17 1 lap 0:06.615 2:13.672 3 45.11
13 911 Tixier, Jordi FRA FFM KTM 40:36.597 17 1 lap 0:08.971 2:14.687 4 44.77
14 37 Teillet, Valentin FRA FFM Suzuki 40:42.138 17 1 lap 0:05.541 2:12.758 3 45.421

15 76 Rauchenecker, Pascal AUT OeAMTC KTM 40:42.534 17 1 lap 0:00.396 2:15.894 2 44.373
16 17 Butron Oliva, Antonio Jose ESP RFME KTM 40:45.390 17 1 lap 0:02.856 2:14.072 2 44.976
17 64 Bengtsson, Filip SWE SVEMO KTM 41:06.370 17 1 lap 0:20.980 2:15.528 3 44.493
18 388 Söderberg, Ludvig FIN SML Kawasaki 41:16.429 17 1 lap 0:10.059 2:15.281 2 44.574
19 195 Justs, Roberts LAT LAMSF Honda 42:03.575 17 1 lap 0:47.146 2:15.145 2 44.619
20 33 Lieber, Julien BEL MUL KTM 40:24.800 16 2 laps 1 lap 2:21.733 2 42.545
21 114 Booker, Jordan GBR ACU KTM 40:46.652 16 2 laps 0:21.852 2:21.657 2 42.568
22 550 Mitchell, Sean ZIM ZMSF KTM 42:30.166 16 2 laps 1:43.514 2:22.379 1 42.352
23 34 Roelants, Joel BEL FMB KTM 34:29.184 15 3 laps 1 lap 2:10.401 2 46.242
24 102 Smitka, Petr CZE ACCR TM 37:49.209 15 3 laps 3:20.025 2:21.499 2 42.615
25 123 Bernardini, Samuele ITA FMI KTM 38:24.054 15 3 laps 0:34.845 2:19.452 2 43.241
26 300 Golovkin, Viacheslav RUS LAMSF Kawasaki 40:46.929 15 3 laps 2:22.875 2:24.826 2 41.636
27 611 Cociu, Mihail MDA FRM Honda 36:02.692 14 4 laps 1 lap 2:22.829 2 42.218
28 131 Aubin, Nicolas FRA FFM KTM 31:19.887 13 5 laps 1 lap 2:13.751 4 45.084
29 77 Lupino, Alessandro ITA FMI Husqvarna 13:11.115 5 13 laps 8 laps 2:20.214 3 43.006
30 112 Heibye, Even NOR NMF KTM 9:46.404 4 14 laps 1 lap 2:12.413 4 45.539
31 170 Leib, Michael USA FSM Husqvarna 10:15.743 4 14 laps 0:29.339 2:16.314 2 44.236
32 202 Larrieu, Loic FRA FFM KTM 7:49.345 3 15 laps 1 lap 2:18.525 2 43.53

2 ÈME MANCHE MX2

Holeshot de Ken Roczen..! Chute de Jeffrey Herlings quelques virages plus loin.. Paulin 6 Ème.. Chute de Larrieu à 9 min de la fin.. Herlings va revenir très fort et remporter le GP.. Triplé KTM sur le podium MX2 de Lommel..

MX2 – Grand Prix Race 2 – Classification
Pos Nr Rider Nat. Fed. Bike Time laps Diff. First Diff. Prev. Bestlaptime in lap Speed

1 84 Herlings, Jeffrey NED KNMV KTM 41:28.098 17 0:00.000 0:00.000 2:17.279 3 43.925
2 94 Roczen, Ken GER DMSB KTM 41:46.274 17 0:18.176 0:18.176 2:17.726 4 43.783
3 89 van Horebeek, Jeremy BEL FMB KTM 42:12.860 17 0:44.762 0:26.586 2:18.642 1 43.493
4 99 Anstie, Max GBR AMA Kawasaki 42:26.997 17 0:58.899 0:14.137 2:20.418 4 42.943
5 21 Paulin, Gautier FRA MCM Yamaha 42:48.506 17 1:20.408 0:21.509 2:18.420 2 43.563
6 100 Searle, Tommy GBR ACU Kawasaki 42:56.666 17 1:28.568 0:08.160 2:23.148 1 42.124
7 34 Roelants, Joel BEL FMB KTM 43:00.661 17 1:32.563 0:03.995 2:23.012 2 42.164
8 151 Kullas, Harri FIN SML Yamaha 43:25.313 17 1:57.215 0:24.652 2:27.357 6 40.921
9 45 Nicholls, Jake GBR ACU KTM 43:33.691 17 2:05.593 0:08.378 2:23.842 2 41.921
10 91 Karro, Matiss LAT LAMSF Honda 44:00.454 17 2:32.356 0:26.763 2:26.950 4 41.034
11 7 Tonus, Arnaud SUI FMS Yamaha 41:36.813 16 1 lap 1 lap 2:26.273 2 41.224
12 17 Butron Oliva, Antonio Jose ESP RFME KTM 42:13.413 16 1 lap 0:36.600 2:31.234 2 39.872
13 911 Tixier, Jordi FRA FFM KTM 42:28.579 16 1 lap 0:15.166 2:28.900 2 40.497
14 55 Kras, Mike NED KNMV Suzuki 42:32.282 16 1 lap 0:03.703 2:30.439 3 40.083
15 76 Rauchenecker, Pascal AUT OeAMTC KTM 42:36.170 16 1 lap 0:03.888 2:30.599 1 40.04
16 37 Teillet, Valentin FRA FFM Suzuki 42:52.500 16 1 lap 0:16.330 2:31.491 2 39.804
17 388 Söderberg, Ludvig FIN SML Kawasaki 43:08.953 16 1 lap 0:16.453 2:32.935 4 39.429
18 77 Lupino, Alessandro ITA FMI Husqvarna 43:30.736 16 1 lap 0:21.783 2:31.560 3 39.786
19 102 Smitka, Petr CZE ACCR TM 41:28.441 15 2 laps 1 lap 2:38.940 4 37.939
20 195 Justs, Roberts LAT LAMSF Honda 41:30.180 15 2 laps 0:01.739 2:35.952 4 38.666
21 300 Golovkin, Viacheslav RUS LAMSF Kawasaki 43:20.107 15 2 laps 1:49.927 2:43.231 1 36.942
22 611 Cociu, Mihail MDA FRM Honda 43:48.875 15 2 laps 0:28.768 2:43.113 3 36.968
23 152 Petrov, Petar BUL BMF Yamaha 35:52.667 14 3 laps 1 lap 2:25.179 5 41.535
24 550 Mitchell, Sean ZIM ZMSF KTM 42:10.965 14 3 laps 6:18.298 2:44.496 2 36.657
25 114 Booker, Jordan GBR ACU KTM 42:29.795 14 3 laps 0:18.830 2:38.522 1 38.039
26 33 Lieber, Julien BEL MUL KTM 34:13.867 12 5 laps 2 laps 2:39.312 2 37.85
27 64 Bengtsson, Filip SWE SVEMO KTM 30:55.456 11 6 laps 1 lap 2:27.746 1 40.813
28 202 Larrieu, Loic FRA FFM KTM 24:26.169 9 8 laps 2 laps 2:36.291 5 38.582
29 123 Bernardini, Samuele ITA FMI KTM 8:38.555 3 14 laps 6 laps 2:35.829 1 38.696
30 170 Leib, Michael USA FSM Husqvarna 9:03.062 3 14 laps 0:24.507 2:27.770 2 40.807
31 131 Aubin, Nicolas FRA FFM KTM 6:13.774 2 15 laps 1 lap 2:34.803 1 38.953

MX2 – GP Classification
Pos Nr Rider Nat. Fed. Bike Race 1 Race 2 Total

1 84 Herlings, Jeffrey NED KNMV KTM 25 25 50
2 94 Roczen, Ken GER DMSB KTM 22 22 44
3 89 van Horebeek, Jeremy BEL FMB KTM 20 20 40
4 99 Anstie, Max GBR AMA Kawasaki 18 18 36
5 21 Paulin, Gautier FRA MCM Yamaha 14 16 30
6 100 Searle, Tommy GBR ACU Kawasaki 15 15 30
7 151 Kullas, Harri FIN SML Yamaha 12 13 25
8 45 Nicholls, Jake GBR ACU KTM 13 12 25
9 7 Tonus, Arnaud SUI FMS Yamaha 11 10 21
10 91 Karro, Matiss LAT LAMSF Honda 9 11 20
11 55 Kras, Mike NED KNMV Suzuki 10 7 17
12 911 Tixier, Jordi FRA FFM KTM 8 8 16
13 152 Petrov, Petar BUL BMF Yamaha 16 0 16
14 34 Roelants, Joel BEL FMB KTM 0 14 14
15 17 Butron Oliva, Antonio Jose ESP RFME KTM 5 9 14
16 76 Rauchenecker, Pascal AUT OeAMTC KTM 6 6 12
17 37 Teillet, Valentin FRA FFM Suzuki 7 5 12
18 388 Söderberg, Ludvig FIN SML Kawasaki 3 4 7
19 64 Bengtsson, Filip SWE SVEMO KTM 4 0 4
20 77 Lupino, Alessandro ITA FMI Husqvarna 0 3 3
21 195 Justs, Roberts LAT LAMSF Honda 2 1 3
22 102 Smitka, Petr CZE ACCR TM 0 2 2
23 33 Lieber, Julien BEL MUL KTM 1 0 1
24 300 Golovkin, Viacheslav RUS LAMSF Kawasaki 0 0 0
25 611 Cociu, Mihail MDA FRM Honda 0 0 0
26 550 Mitchell, Sean ZIM ZMSF KTM 0 0 0
27 114 Booker, Jordan GBR ACU KTM 0 0 0
28 202 Larrieu, Loic FRA FFM KTM 0 0 0
29 123 Bernardini, Samuele ITA FMI KTM 0 0 0
30 170 Leib, Michael USA FSM Husqvarna 0 0 0
31 131 Aubin, Nicolas FRA FFM KTM 0 0 0

MX2 – World Championship Classification
Pos Nr Rider Nat. Total BUL NED USA BRA FRA POR ESP SWE GER LAT BEL CZE GBR EUR ITA

1 94 Roczen, Ken GER 490 25-25 22-22 25-25 25-22 25-10 25-0 25-25 25-25 25-20 25-25 22-22 - - - - - - - -
2 84 Herlings, J. NED 469 16-20 25-25 22-22 22-25 14-22 22-22 20-18 20-22 22-18 20-22 25-25 - - - - - - - -
3 100 Searle, Tommy GBR 400 22-22 20-20 16-20 18-18 18-25 0-25 22-22 0-18 20-22 22-20 15-15 - - - - - - - -
4 21 Paulin, G. FRA 373 20-14 16-15 15-0 20-20 22-18 16-20 18-20 22-20 18-25 13-11 14-16 - - - - - - - -
5 338 Osborne, Z. USA 295 14-18 15-13 12-18 16-16 20-20 20-16 0-15 10-11 16-15 14-16 - - - - - - - - - -
6 7 Tonus, Arnaud SUI 295 18-13 18-18 14-0 14-13 16-14 10-18 15-16 15-13 15-16 18-0 11-10 - - - - - - - -
7 99 Anstie, Max GBR 285 13-15 11-12 20-16 15-14 4-15 18-14 0-0 18-16 3-11 16-18 18-18 - - - - - - - -
8 151 Kullas, Harri FIN 249 11-7 14-14 18-10 10-12 11-12 11-12 11-11 5-10 8-10 12-15 12-13 - - - - - - - -
9 131 Aubin, Nicolas FRA 207 12-12 12-0 9-14 7-7 15-16 5-13 16-13 12-15 14-0 15-0 0-0 - - - - - - - -
10 34 Roelants, Joel BEL 180 10-9 13-16 7-12 13-10 13-11 15-9 14-14 0-0 - - - - 0-14 - - - - - - - -
11 430 Charlier, C. FRA 170 7-11 7-11 13-13 12-15 0-13 13-15 - - 14-14 12-0 0-0 - - - - - - - - - -
12 45 Nicholls, Jake GBR 139 - - - - - - - - 10-8 8-10 7-10 13-0 13-13 9-13 13-12 - - - - - - - -
13 911 Tixier, Jordi FRA 131 8-3 3-6 8-11 11-11 9-0 0-1 4-8 0-8 5-3 8-8 8-8 - - - - - - - -
14 77 Lupino, A. ITA 124 1-10 0-3 6-7 9-4 0-7 9-6 8-9 9-5 4-9 5-10 0-3 - - - - - - - -
15 17 Butron Oliva, A. ESP 108 4-2 8-7 - - - - 7-1 12-11 10-0 0-0 10-12 10-0 5-9 - - - - - - - -
16 152 Petrov, Petar BUL 102 3-0 0-10 10-3 5-0 0-3 6-4 6-0 7-7 6-0 7-9 16-0 - - - - - - - -
17 89 van Horebeek, J. BEL 99 15-16 - - - - - - - - - - - - 16-12 - - - - 20-20 - - - - - - - -
18 25 Coldenhoff, G. NED 90 6-8 9-8 - - - - 8-6 14-7 12-12 0-0 - - - - - - - - - - - - - -
19 37 Teillet, V. FRA 82 0-0 - - - - - - - - - - - - 11-9 11-14 11-14 7-5 - - - - - - - -..

VETERANS MX – Time Practice – Classification
Pos Nr Rider Nat. Fed. Bike Bestlaptime in lap Diff. First Diff. Prev. Tot. Laps Speed

1 178 Hofstede, Klaas NED KNMV Honda 2:16.112 7 0:00.000 0:00.000 7 44.302
2 20 Bal, Pascal BEL FMB Yamaha 2:19.905 5 0:03.793 0:03.793 5 43.101
3 200 Mercer, Philip GBR ACU KTM 2:23.962 5 0:07.850 0:04.057 5 41.886
4 65 Hendrickx, Erwin NED KNMV Honda 2:24.685 8 0:08.573 0:00.723 9 41.677
5 10 Dijkstra, Koos NED KNMV Honda 2:31.562 4 0:15.450 0:06.877 8 39.786
6 89 Symons, Chris BEL FMB Yamaha 2:31.670 8 0:15.558 0:00.108 11 39.757
7 30 Bergsma, Peter NED KNMV Suzuki 2:32.512 5 0:16.400 0:00.842 7 39.538
8 51 Bellon, Patrick BEL FMB Honda 2:35.773 2 0:19.661 0:03.261 9 38.71
9 42 Jakobsson, Roger SWE SVEMO Yamaha 2:36.820 5 0:20.708 0:01.047 7 38.452
10 12 Bruggen, Hendrik NED KNMV Yamaha 2:38.661 4 0:22.549 0:01.841 9 38.006
11 242 Gajser, Bogomir SLO AMZS Suzuki 2:38.783 7 0:22.671 0:00.122 7 37.976
12 70 Camps, Alfredo ESP RFME Honda 2:39.233 8 0:23.121 0:00.450 8 37.869
13 34 Schellekens, Patrick NED KNMV KTM 2:41.531 6 0:25.419 0:02.298 6 37.33
14 401 Looman, Eddie NED KNMV Honda 2:43.017 6 0:26.905 0:01.486 6 36.99
15 88 Hellman, Kim FIN SML Honda 2:44.907 4 0:28.795 0:01.890 7 36.566
16 28 Lewis, Phil GBR ACU KTM 2:49.124 9 0:33.012 0:04.217 9 35.654
17 94 Kokk, Marko EST EMF KTM 2:52.184 7 0:36.072 0:03.060 8 35.021
18 221 Caillouet, Sebastien FRA FFM Yamaha 2:55.741 7 0:39.629 0:03.557 8 34.312
19 111 Punkki, Juha FIN SML KTM 2:58.631 6 0:42.519 0:02.890 8 33.757
20 25 Massara, Matteo ITA FMI KTM 3:00.038 4 0:43.926 0:01.407 6 33.493
21 23 Postma, Gerke NED KNMV Kawasaki 3:00.517 2 0:44.405 0:00.479 8 33.404
22 62 Meroli, Roberto ITA FMI KTM 3:06.254 3 0:50.142 0:05.737 8 32.375
23 43 Marta, Ferenc HUN MAMS Yamaha 3:10.687 2 0:54.575 0:04.433 5 31.623
24 17 Sunol, Joaquim ESP RFME KTM 3:14.366 4 0:58.254 0:03.679 5 31.024
25 64 Stolyarov, Victor RUS MFR KTM 3:16.569 4 1:00.457 0:02.203 7 30.676
26 82 Arzani, Giorgio ITA FMI Honda 3:22.540 8 1:06.428 0:05.971 9 29.772
27 222 Medico, Jean-Pierre FRA FFM Yamaha 3:23.138 2 1:07.026 0:00.598 6 29.684
28 66 Costa , Xavier ESP RFME KTM 3:33.390 7 1:17.278 0:10.252 7 28.258
29 224 Grandi Gian, Guido ITA FMI Honda 3:46.038 3 1:29.926 0:12.648 3 26.677
30 45 Vlcek, Marek CZE ACCR Yamaha 0:00.000 0 -3:43.888 -4:13.962 0 0

VMX – Race 1 – Classification
Pos Nr Rider Nat. Fed. Bike Time laps Diff. First Diff. Prev. Bestlaptime in lap Speed

1 178 Hofstede, Klaas NED KNMV Honda 25:52.572 10 0:00.000 0:00.000 2:27.058 1 41.004
2 65 Hendrickx, Erwin NED KNMV Honda 26:02.741 10 0:10.169 0:10.169 2:26.306 2 41.215
3 20 Bal, Pascal BEL FMB Yamaha 26:48.304 10 0:55.732 0:45.563 2:31.807 2 39.721
4 200 Mercer, Philip GBR ACU KTM 27:04.827 10 1:12.255 0:16.523 2:32.672 1 39.496
5 10 Dijkstra, Koos NED KNMV Honda 28:07.082 10 2:14.510 1:02.255 2:34.165 2 39.114
6 89 Symons, Chris BEL FMB Yamaha 28:21.935 10 2:29.363 0:14.853 2:36.584 1 38.51
7 42 Jakobsson, Roger SWE SVEMO Yamaha 26:02.152 9 1 lap 1 lap 2:38.866 1 37.957
8 12 Bruggen, Hendrik NED KNMV Yamaha 26:46.638 9 1 lap 0:44.486 2:46.957 2 36.117
9 88 Hellman, Kim FIN SML Honda 26:47.448 9 1 lap 0:00.810 2:49.116 4 35.656
10 51 Bellon, Patrick BEL FMB Honda 26:57.379 9 1 lap 0:09.931 2:47.690 2 35.959
11 70 Camps, Alfredo ESP RFME Honda 26:57.946 9 1 lap 0:00.567 2:45.091 1 36.525
12 242 Gajser, Bogomir SLO AMZS Suzuki 27:28.694 9 1 lap 0:30.748 2:49.282 1 35.621
13 28 Lewis, Phil GBR ACU KTM 28:03.812 9 1 lap 0:35.118 2:56.348 3 34.194
14 34 Schellekens, Patrick NED KNMV KTM 28:19.883 9 1 lap 0:16.071 2:53.128 1 34.83
15 94 Kokk, Marko EST EMF KTM 29:32.374 9 1 lap 1:12.491 2:57.808 2 33.913
16 401 Looman, Eddie NED KNMV Honda 25:52.380 8 2 laps 1 lap 2:53.296 1 34.796
17 23 Postma, Gerke NED KNMV Kawasaki 26:04.897 8 2 laps 0:12.517 3:00.375 1 33.43
18 221 Caillouet, Sebastien FRA FFM Yamaha 26:20.771 8 2 laps 0:15.874 3:02.645 1 33.015
19 111 Punkki, Juha FIN SML KTM 26:21.297 8 2 laps 0:00.526 3:03.814 1 32.805
20 25 Massara, Matteo ITA FMI KTM 27:18.421 8 2 laps 0:57.124 3:02.815 2 32.984
21 62 Meroli, Roberto ITA FMI KTM 27:29.903 8 2 laps 0:11.482 3:10.741 1 31.614
22 43 Marta, Ferenc HUN MAMS Yamaha 27:49.397 8 2 laps 0:19.494 3:13.628 2 31.142
23 82 Arzani, Giorgio ITA FMI Honda 29:24.086 8 2 laps 1:34.689 3:23.032 4 29.7
24 17 Sunol, Joaquim ESP RFME KTM 26:12.233 7 3 laps 1 lap 3:26.293 2 29.23
25 64 Stolyarov, Victor RUS MFR KTM 26:17.999 7 3 laps 0:05.766 3:26.644 3 29.181
26 222 Medico, Jean-Pierre FRA FFM Yamaha 27:02.256 7 3 laps 0:44.257 3:31.914 2 28.455
27 66 Costa , Xavier ESP RFME KTM 27:31.857 7 3 laps 0:29.601 3:38.676 2 27.575
28 224 Grandi Gian, Guido ITA FMI Honda 27:27.283 4 6 laps 3 laps 4:04.240 1 24.689
29 30 Bergsma, Peter NED KNMV Suzuki 3:35.057 1 9 laps 3 laps 2:44.421 1 36.674

VMX – Race 2 – Classification
Pos Nr Rider Nat. Fed. Bike Time laps Diff. First Diff. Prev. Bestlaptime in lap Speed

1 65 Hendrickx, Erwin NED KNMV Honda 26:54.006 10 0:00.000 0:00.000 2:33.722 2 39.227
2 178 Hofstede, Klaas NED KNMV Honda 26:58.948 10 0:04.942 0:04.942 2:34.161 5 39.115
3 20 Bal, Pascal BEL FMB Yamaha 28:12.525 10 1:18.519 1:13.577 2:38.114 1 38.137
4 200 Mercer, Philip GBR ACU KTM 29:07.227 10 2:13.221 0:54.702 2:41.633 2 37.307
5 10 Dijkstra, Koos NED KNMV Honda 27:08.914 9 1 lap 1 lap 2:47.669 1 35.964
6 42 Jakobsson, Roger SWE SVEMO Yamaha 27:53.043 9 1 lap 0:44.129 2:55.668 1 34.326
7 12 Bruggen, Hendrik NED KNMV Yamaha 27:54.942 9 1 lap 0:01.899 2:57.139 2 34.041
8 70 Camps, Alfredo ESP RFME Honda 28:34.075 9 1 lap 0:39.133 2:59.454 2 33.602
9 242 Gajser, Bogomir SLO AMZS Suzuki 28:34.364 9 1 lap 0:00.289 2:59.081 3 33.672
10 51 Bellon, Patrick BEL FMB Honda 29:01.847 9 1 lap 0:27.483 2:59.302 1 33.63
11 401 Looman, Eddie NED KNMV Honda 29:05.272 9 1 lap 0:03.425 3:03.362 2 32.886
12 34 Schellekens, Patrick NED KNMV KTM 29:09.438 9 1 lap 0:04.166 3:03.165 2 32.921
13 88 Hellman, Kim FIN SML Honda 29:09.685 9 1 lap 0:00.247 3:01.746 9 33.178
14 28 Lewis, Phil GBR ACU KTM 29:09.925 9 1 lap 0:00.240 3:04.369 9 32.706
15 89 Symons, Chris BEL FMB Yamaha 27:09.221 8 2 laps 1 lap 2:53.264 1 34.802
16 111 Punkki, Juha FIN SML KTM 28:12.277 8 2 laps 1:03.056 3:14.517 2 31
17 221 Caillouet, Sebastien FRA FFM Yamaha 28:30.695 8 2 laps 0:18.418 3:21.963 2 29.857
18 62 Meroli, Roberto ITA FMI KTM 29:11.388 8 2 laps 0:40.693 3:22.780 2 29.737
19 43 Marta, Ferenc HUN MAMS Yamaha 29:24.057 8 2 laps 0:12.669 3:23.333 2 29.656
20 25 Massara, Matteo ITA FMI KTM 29:39.356 8 2 laps 0:15.299 3:20.096 4 30.136
21 82 Arzani, Giorgio ITA FMI Honda 28:18.100 7 3 laps 1 lap 3:45.187 3 26.778
22 64 Stolyarov, Victor RUS MFR KTM 28:21.917 7 3 laps 0:03.817 3:41.848 1 27.181
23 17 Sunol, Joaquim ESP RFME KTM 28:34.420 7 3 laps 0:12.503 3:37.221 1 27.76
24 66 Costa , Xavier ESP RFME KTM 28:46.887 7 3 laps 0:12.467 3:49.160 1 26.313
25 222 Medico, Jean-Pierre FRA FFM Yamaha 31:01.699 7 3 laps 2:14.812 4:03.354 1 24.779
26 23 Postma, Gerke NED KNMV Kawasaki 13:52.157 3 7 laps 4 laps 3:34.756 1 28.078
27 224 Grandi Gian, Guido ITA FMI Honda 27:59.623 2 8 laps 1 lap 4:17.760 1 23.394

VMX – Overall Classification
Pos Nr Rider Nat. Fed. Bike Race 1 Race 2 Total

1 65 Hendrickx, Erwin NED KNMV Honda 22 25 47
2 178 Hofstede, Klaas NED KNMV Honda 25 22 47
3 20 Bal, Pascal BEL FMB Yamaha 20 20 40
4 200 Mercer, Philip GBR ACU KTM 18 18 36
5 10 Dijkstra, Koos NED KNMV Honda 16 16 32
6 42 Jakobsson, Roger SWE SVEMO Yamaha 14 15 29
7 12 Bruggen, Hendrik NED KNMV Yamaha 13 14 27
8 70 Camps, Alfredo ESP RFME Honda 10 13 23
9 51 Bellon, Patrick BEL FMB Honda 11 11 22
10 242 Gajser, Bogomir SLO AMZS Suzuki 9 12 21
11 89 Symons, Chris BEL FMB Yamaha 15 6 21
12 88 Hellman, Kim FIN SML Honda 12 8 20
13 34 Schellekens, Patrick NED KNMV KTM 7 9 16
14 401 Looman, Eddie NED KNMV Honda 5 10 15
15 28 Lewis, Phil GBR ACU KTM 8 7 15
16 111 Punkki, Juha FIN SML KTM 2 5 7
17 221 Caillouet, Sebastien FRA FFM Yamaha 3 4 7
18 94 Kokk, Marko EST EMF KTM 6 0 6
19 23 Postma, Gerke NED KNMV Kawasaki 4 0 4
20 62 Meroli, Roberto ITA FMI KTM 0 3 3..
..27 222 Medico, Jean-Pierre FRA FFM Yamaha 0 0 0..

VMX – Championship Classification
Pos Nr Rider Nat. Total NED USA LAT BEL GBR EUR

1 1 Nilsson, Mats SWE 145 25-25 20-25 25-25 - - - - - -
2 20 Bal, Pascal BEL 111 20-22 - - 14-15 20-20 - - - -
3 42 Jakobsson, R. SWE 100 8-13 11-16 10-13 14-15 - - - -
4 70 Camps, Alfredo ESP 94 11-9 14-14 16-7 10-13 - - - -
5 178 Hofstede, K. NED 87 22-18 - - - - 25-22 - - - -
6 65 Hendrickx, E. NED 83 0-0 - - 18-18 22-25 - - - -
7 200 Mercer, Philip GBR 76 - - - - 20-20 18-18 - - - -
8 88 Hellman, Kim FIN 67 7-12 5-9 8-6 12-8 - - - -
9 28 Lewis, Phil GBR 59 5-3 8-13 7-8 8-7 - - - -
10 10 Dijkstra, Koos NED 57 10-15 - - - - 16-16 - - - -
11 15 Dubach, Doug USA 45 - - 25-20 - - - - - - - -
12 13 Kahro, Valdur EST 45 16-16 13-0 - - - - - - - -
13 35 Vehkonen, Ismo FIN 44 - - - - 22-22 - - - - - -
14 9 King, Darryll NZL 44 - - 22-22 - - - - - - - -
15 32 Lheriteau, C. FRA 38 18-20 - - - - - - - - - -..

(Photos : Ray Archer/KTM)

A voir aussi :

5 commentaires sur “MOTOCROSS FIM – GP DE LOMMEL : INFOS ET RÉSULTATS”

  1. observateur20 dit :

    Non seulement il se battait avec Herlings, mais il le battait……

  2. observateur20 dit :

    Chat noir, 80% de ses chutes, il n’est pas responsables,sont des accrochages avec des autres pilotes(Butron, Aubin, Lupino, Herlings,osborne…) va essayer d’etre présent a Locket dimanche….

  3. GUY COOPER dit :

    ça commence à faire beaucoups de blessures pour CC430 ! :-(
    quand je pense qu’en EMX2 il se battait avec Herlings bizarre …

  4. GUY COOPER dit :

    Zach Osborne serait out pour la saison, suite à une chute en championnat Britannique ! :-(

    • Devotee dit :

      Arnaud Tonus en avait parlé dans son dernier communiqué ici-même.. Un Gros « par devant ».. Christophe Charlier est également absent sur la grille de départ, sans doute blessé après son crash lors du dernier GP.. Jeffrey Herlings ne serait pas à 100 % non plus suite à un crash la semaine dernière..